Time;durP1;ratioP1;P1;durP2;ratioP2;P2;SDS_P1;SDS_P2;PMS_P1;PMS_P2;Temp;Humidity;BMP_temperature;BMP_pressure;BME280_temperature;BME280_humidity;BME280_pressure;Samples;Min_cycle;Max_cycle;Signal;HPM_P1;HPM_P2
2021/11/13 00:29:09;;;;;;;10.98;9.88;;;8.80;99.90;;;;;;5929288;22;20983;-91
2021/11/13 00:35:03;;;;;;;13.75;9.80;;;7.90;99.90;;;;;;5997477;22;20206;31
2021/11/13 00:37:40;;;;;;;11.68;9.40;;;8.10;99.90;;;;;;5415508;23;20249;-91
2021/11/13 00:40:16;;;;;;;11.48;9.65;;;8.10;99.90;;;;;;5478329;22;20276;-92
2021/11/13 00:56:12;;;;;;;12.52;9.80;;;8.40;99.90;;;;;;5098354;22;20214;-92
2021/11/13 01:36:19;;;;;;;12.55;11.27;;;;;;;;;;5992509;22;21250;-89
2021/11/13 01:39:19;;;;;;;10.07;8.50;;;8.60;99.90;;;;;;5477027;22;20257;-91
2021/11/13 01:47:05;;;;;;;9.00;8.20;;;8.80;99.90;;;;;;5768610;22;20500;-91
2021/11/13 01:54:51;;;;;;;9.48;8.48;;;8.80;99.90;;;;;;5992316;22;20459;-91
2021/11/13 02:02:56;;;;;;;11.55;10.30;;;8.80;99.90;;;;;;5238611;22;20214;-92
2021/11/13 02:10:58;;;;;;;11.32;10.20;;;8.70;99.90;;;;;;4999501;28;20211;-92
2021/11/13 02:16:34;;;;;;;14.07;10.95;;;11.20;99.90;;;;;;5140692;22;20263;-91
2021/11/13 02:21:43;;;;;;;13.50;10.40;;;8.70;99.90;;;;;;2337603;22;20207;-90
2021/11/13 02:24:13;;;;;;;13.77;10.63;;;8.60;99.90;;;;;;5059780;28;20641;-91
2021/11/13 02:27:06;;;;;;;15.80;10.88;;;8.50;99.90;;;;;;5033111;28;20446;-90
2021/11/13 02:32:21;;;;;;;;;;;;;;;;;;;;;
2021/11/13 02:37:28;;;;;;;12.25;11.05;;;8.60;99.90;;;;;;5326592;22;20231;-91
2021/11/13 02:40:06;;;;;;;12.10;10.70;;;12.40;99.90;;;;;;5060442;28;20175;-91
2021/11/13 02:42:46;;;;;;;;;;;;;;;;;;;;;
2021/11/13 02:45:14;;;;;;;11.60;10.10;;;8.50;99.90;;;;;;5076496;28;20387;-91
2021/11/13 02:47:54;;;;;;;20.00;11.48;;;8.60;99.90;;;;;;5177238;23;20207;-92
2021/11/13 02:53:12;;;;;;;8.38;7.43;;;8.60;99.90;;;;;;5862451;22;20761;-90
2021/11/13 02:55:38;;;;;;;12.30;11.00;;;;;;;;;;5059009;28;20178;-91
2021/11/13 02:58:14;;;;;;;;;;;;;;;;;;;;;
2021/11/13 03:00:41;;;;;;;13.35;10.45;;;;;;;;;;5078418;28;20199;-89
2021/11/13 03:03:15;;;;;;;20.92;12.35;;;8.30;99.90;;;;;;5060688;28;20171;-91
2021/11/13 03:08:38;;;;;;;19.27;10.80;;;8.10;99.90;;;;;;5499396;22;20217;-91
2021/11/13 03:18:54;;;;;;;17.40;11.57;;;7.70;99.90;;;;;;5368555;22;20223;-91
2021/11/13 03:21:47;;;;;;;20.88;13.57;;;7.60;99.90;;;;;;5131211;23;20257;-90
2021/11/13 03:24:22;;;;;;;13.57;9.18;;;;;;;;;;5054749;28;20211;-90
2021/11/13 03:33:54;;;;;;;17.13;12.30;;;7.40;99.90;;;;;;5075848;28;20189;-89
2021/11/13 03:41:58;;;;;;;22.00;16.27;;;7.40;99.90;;;;;;5548784;22;20207;-90
2021/11/13 03:44:38;;;;;;;24.60;17.23;;;7.30;99.90;;;;;;5072531;28;20210;-90
2021/11/13 03:47:45;;;;;;;;;;;;;;;;;;;;;
2021/11/13 03:51:05;;;;;;;22.27;15.43;;;7.40;99.90;;;;;;5060655;28;20179;-88
2021/11/13 03:53:49;;;;;;;27.55;17.15;;;7.40;99.90;;;;;;5065957;28;20179;-89
2021/11/13 03:56:24;;;;;;;21.90;15.80;;;7.40;99.90;;;;;;5071839;28;20190;-88
2021/11/13 03:59:05;;;;;;;27.38;16.33;;;7.40;99.90;;;;;;5070620;28;20152;-88
2021/11/13 04:02:27;;;;;;;26.65;17.85;;;9.60;99.90;;;;;;5070586;28;20231;-88
2021/11/13 04:05:03;;;;;;;20.63;16.13;;;7.60;99.90;;;;;;5059770;28;20203;-88
2021/11/13 04:08:03;;;;;;;;;;;;;;;;;;;;;
2021/11/13 04:10:33;;;;;;;22.63;16.40;;;7.60;99.90;;;;;;5072940;28;20689;-89
2021/11/13 04:13:09;;;;;;;24.55;18.20;;;7.60;99.90;;;;;;5069772;28;20167;-89
2021/11/13 04:15:58;;;;;;;24.17;18.30;;;7.60;99.90;;;;;;5033234;28;20242;-88
2021/11/13 04:18:26;;;;;;;22.10;18.08;;;;;;;;;;5073540;28;20168;-89
2021/11/13 04:21:49;;;;;;;22.70;15.95;;;7.70;99.90;;;;;;5075981;28;20175;-89
2021/11/13 04:24:27;;;;;;;23.27;16.90;;;10.20;99.90;;;;;;5132760;22;20211;-90
2021/11/13 04:26:55;;;;;;;23.52;15.82;;;;;;;;;;5053724;28;20207;-89
2021/11/13 04:29:28;;;;;;;24.35;16.52;;;7.70;99.90;;;;;;5057445;28;20182;-88
2021/11/13 04:31:59;;;;;;;21.25;16.00;;;7.30;99.90;;;;;;5041852;28;20175;-89
2021/11/13 04:34:52;;;;;;;22.40;15.23;;;7.80;99.90;;;;;;5098580;22;20239;-89
2021/11/13 04:37:23;;;;;;;22.80;17.38;;;7.80;99.90;;;;;;5058733;28;20207;-88
2021/11/13 04:39:49;;;;;;;29.42;16.17;;;;;;;;;;5058297;28;20162;-88
2021/11/13 04:42:25;;;;;;;20.40;16.30;;;7.90;99.90;;;;;;5040036;28;20172;-90
2021/11/13 04:45:14;;;;;;;21.98;18.45;;;7.80;99.90;;;;;;5057342;28;20255;-88
2021/11/13 04:47:51;;;;;;;21.63;14.80;;;7.80;99.90;;;;;;5055030;28;20271;-91
2021/11/13 04:50:22;;;;;;;17.77;13.63;;;7.80;99.90;;;;;;5040896;28;20187;-89
2021/11/13 04:53:44;;;;;;;;;;;;;;;;;;;;;
2021/11/13 04:56:19;;;;;;;19.73;16.10;;;7.80;99.90;;;;;;5017632;28;20185;-90
2021/11/13 04:58:53;;;;;;;22.85;15.77;;;;;;;;;;5003434;28;20476;-89
2021/11/13 05:09:21;;;;;;;24.60;18.35;;;7.80;99.90;;;;;;5430489;22;20214;-89
2021/11/13 05:12:24;;;;;;;22.92;16.60;;;10.20;99.90;;;;;;5040239;28;20174;-89
2021/11/13 05:15:12;;;;;;;22.05;15.15;;;7.90;99.90;;;;;;5060857;28;20646;-90
2021/11/13 05:18:08;;;;;;;18.20;13.18;;;10.60;99.90;;;;;;5060808;28;20170;-89
2021/11/13 05:20:41;;;;;;;23.50;13.98;;;10.60;99.90;;;;;;5058593;28;20182;-88
2021/11/13 05:23:30;;;;;;;22.20;14.60;;;8.00;99.90;;;;;;5008017;28;20176;-88
2021/11/13 05:26:15;;;;;;;24.55;16.20;;;8.00;99.90;;;;;;5027848;28;20229;-90
2021/11/13 05:28:52;;;;;;;24.55;15.63;;;8.00;99.90;;;;;;5055364;28;20203;-90
2021/11/13 05:31:29;;;;;;;17.80;12.45;;;7.00;99.90;;;;;;5056880;28;20172;-90
2021/11/13 05:34:02;;;;;;;25.10;14.23;;;8.00;99.90;;;;;;5026813;28;20269;-89
2021/11/13 05:36:45;;;;;;;19.42;16.70;;;;;;;;;;5058557;28;20179;-89
2021/11/13 05:39:32;;;;;;;23.67;17.60;;;8.00;99.90;;;;;;5056498;28;20285;-89
2021/11/13 05:42:00;;;;;;;22.05;15.88;;;;;;;;;;5049260;28;20202;-90
2021/11/13 05:44:56;;;;;;;24.73;16.35;;;7.90;99.90;;;;;;5076089;28;20195;-89
2021/11/13 05:48:09;;;;;;;21.98;14.65;;;7.90;99.90;;;;;;5076234;28;20249;-90
2021/11/13 05:50:53;;;;;;;20.63;13.38;;;;;;;;;;5070249;28;20193;-90
2021/11/13 05:53:30;;;;;;;17.10;13.52;;;8.00;99.90;;;;;;5058331;28;20164;-88
2021/11/13 05:56:01;;;;;;;20.88;15.25;;;8.00;99.90;;;;;;5055268;28;20206;-91
2021/11/13 05:58:48;;;;;;;20.48;15.50;;;8.00;99.90;;;;;;5060697;28;20198;-91
2021/11/13 06:01:15;;;;;;;21.17;14.27;;;8.00;99.90;;;;;;5059675;28;20164;-91
2021/11/13 06:03:48;;;;;;;23.20;17.27;;;8.00;99.90;;;;;;5059522;28;20171;-87
2021/11/13 06:08:46;;;;;;;24.33;14.00;;;8.10;99.90;;;;;;5095089;28;20225;-90
2021/11/13 06:11:15;;;;;;;21.13;16.13;;;;;;;;;;5096792;28;20175;-89
2021/11/13 06:13:41;;;;;;;28.30;15.43;;;;;;;;;;5076525;28;20563;-89
2021/11/13 06:16:08;;;;;;;23.27;14.80;;;;;;;;;;5090468;28;20410;-89
2021/11/13 06:18:37;;;;;;;19.75;14.55;;;8.20;99.90;;;;;;5089178;28;20517;-87
2021/11/13 06:21:10;;;;;;;22.50;16.30;;;8.10;99.90;;;;;;5091723;28;20174;-88
2021/11/13 06:24:15;;;;;;;20.02;12.95;;;8.20;99.90;;;;;;5093973;28;20210;-89
2021/11/13 06:26:42;;;;;;;22.92;14.75;;;8.20;99.90;;;;;;5081197;28;20190;-88
2021/11/13 06:29:13;;;;;;;18.48;14.52;;;10.00;99.90;;;;;;5093340;28;20194;-86
2021/11/13 06:32:00;;;;;;;;;;;;;;;;;;;;;
2021/11/13 06:34:40;;;;;;;20.20;14.25;;;8.10;99.90;;;;;;5096159;28;20166;-89
2021/11/13 06:37:18;;;;;;;27.45;18.92;;;8.10;99.90;;;;;;5095066;28;20645;-88
2021/11/13 06:39:47;;;;;;;19.95;16.08;;;8.20;99.90;;;;;;5097671;28;20178;-87
2021/11/13 06:42:36;;;;;;;18.25;14.38;;;8.10;99.90;;;;;;5062552;28;20175;-88
2021/11/13 06:45:41;;;;;;;18.15;14.02;;;8.40;99.90;;;;;;5094800;28;20207;-88
2021/11/13 06:48:35;;;;;;;19.33;14.52;;;8.20;99.90;;;;;;5094513;28;20166;-88
2021/11/13 06:51:05;;;;;;;18.83;12.57;;;;;;;;;;5083115;28;20290;-89
2021/11/13 06:53:34;;;;;;;19.20;13.15;;;;;;;;;;5095306;28;20187;-88
2021/11/13 06:56:03;;;;;;;18.90;15.30;;;8.30;99.90;;;;;;5096939;28;20159;-87
2021/11/13 06:58:44;;;;;;;17.97;14.27;;;8.30;99.90;;;;;;5089153;28;20167;-90
2021/11/13 07:03:47;;;;;;;22.23;14.80;;;;;;;;;;5071501;28;20212;-90
2021/11/13 07:12:33;;;;;;;16.63;12.80;;;8.30;99.90;;;;;;5116029;22;20234;-90
2021/11/13 07:15:01;;;;;;;17.60;12.90;;;;;;;;;;5057201;28;20171;-89
2021/11/13 07:17:33;;;;;;;19.70;12.00;;;8.50;99.90;;;;;;5058863;28;20182;-88
2021/11/13 07:19:59;;;;;;;18.48;13.30;;;;;;;;;;5054482;28;20323;-89
2021/11/13 07:22:28;;;;;;;14.63;13.13;;;;;;;;;;5048487;28;20186;-90
2021/11/13 07:24:57;;;;;;;22.45;14.73;;;;;;;;;;5051468;28;20199;-91
2021/11/13 07:30:18;;;;;;;16.17;13.45;;;8.50;99.90;;;;;;5069644;28;20256;-87
2021/11/13 07:32:47;;;;;;;14.55;11.65;;;;;;;;;;5066698;28;20174;-87
2021/11/13 07:35:13;;;;;;;19.80;14.52;;;;;;;;;;5034870;28;20186;-89
2021/11/13 07:37:51;;;;;;;15.10;12.87;;;8.60;99.90;;;;;;4716207;28;9999650;-89
2021/11/13 07:40:24;;;;;;;14.20;11.05;;;9.10;99.90;;;;;;5051639;28;20649;-89
2021/11/13 07:42:50;;;;;;;15.85;12.90;;;;;;;;;;5068512;28;20789;-88
2021/11/13 07:45:22;;;;;;;15.50;11.98;;;8.60;99.90;;;;;;5049764;28;20635;-88
2021/11/13 07:47:48;;;;;;;12.50;10.68;;;;;;;;;;5051642;28;20167;-88
2021/11/13 07:50:23;;;;;;;11.18;9.77;;;8.60;99.90;;;;;;5048536;28;20203;-88
2021/11/13 07:52:59;;;;;;;16.70;13.95;;;8.70;99.90;;;;;;5066695;28;20170;-88
2021/11/13 07:55:29;;;;;;;14.02;11.90;;;8.60;99.90;;;;;;5050363;28;20185;-88
2021/11/13 07:58:01;;;;;;;19.58;13.85;;;11.80;99.90;;;;;;5067264;28;20171;-89
2021/11/13 08:00:30;;;;;;;13.93;12.30;;;8.70;99.90;;;;;;5067769;28;20207;-88
2021/11/13 08:02:57;;;;;;;13.27;11.37;;;9.90;99.90;;;;;;5048697;28;20163;-88
2021/11/13 08:05:27;;;;;;;14.33;11.40;;;;;;;;;;5047659;28;20469;-89
2021/11/13 08:07:56;;;;;;;11.03;10.00;;;8.80;99.90;;;;;;5046212;28;20501;-89
2021/11/13 08:10:24;;;;;;;14.20;12.70;;;;;;;;;;5047781;28;20462;-89
2021/11/13 08:12:51;;;;;;;17.10;12.40;;;;;;;;;;5046441;28;20175;-89
2021/11/13 08:15:19;;;;;;;14.53;11.90;;;;;;;;;;5045389;28;20414;-89
2021/11/13 08:17:46;;;;;;;15.45;12.48;;;;;;;;;;5039318;28;20410;-88
2021/11/13 08:20:13;;;;;;;15.65;11.38;;;8.90;99.90;;;;;;5045199;28;20179;-88
2021/11/13 08:22:43;;;;;;;11.90;10.80;;;9.00;99.90;;;;;;5031113;28;20176;-88
2021/11/13 08:25:11;;;;;;;13.83;11.30;;;10.70;99.90;;;;;;5027703;28;20477;-87
2021/11/13 08:27:37;;;;;;;11.90;10.25;;;;;;;;;;5025345;28;20434;-88
2021/11/13 08:30:29;;;;;;;10.45;9.52;;;9.10;99.90;;;;;;5030405;28;20168;-91
2021/11/13 08:33:01;;;;;;;11.70;9.93;;;9.00;99.90;;;;;;5049786;28;20204;-88
2021/11/13 08:35:36;;;;;;;9.80;8.90;;;9.00;99.90;;;;;;5034188;28;20423;-91
2021/11/13 08:40:55;;;;;;;8.68;8.02;;;;;;;;;;5235802;22;20231;-91
2021/11/13 08:43:34;;;;;;;9.00;8.27;;;9.20;99.90;;;;;;5146356;23;20213;-90
2021/11/13 08:46:00;;;;;;;8.60;7.80;;;;;;;;;;5091862;28;20479;-88
2021/11/13 08:48:45;;;;;;;9.47;8.40;;;9.10;99.90;;;;;;5092733;28;20419;-90
2021/11/13 08:51:22;;;;;;;8.10;7.40;;;9.10;99.90;;;;;;5108032;28;20420;-91
2021/11/13 08:53:58;;;;;;;8.73;7.82;;;10.30;99.90;;;;;;5092214;28;20468;-90
2021/11/13 08:59:02;;;;;;;9.50;8.70;;;9.00;99.90;;;;;;4203047;22;20238;-90
2021/11/13 09:01:31;;;;;;;8.20;7.50;;;9.10;99.90;;;;;;5053511;28;20163;-88
2021/11/13 09:04:20;;;;;;;10.13;8.23;;;9.10;99.90;;;;;;5069873;28;20179;-89
2021/11/13 09:07:02;;;;;;;8.30;7.60;;;9.20;99.90;;;;;;5070743;28;20194;-90
2021/11/13 09:09:49;;;;;;;7.70;7.17;;;9.20;99.90;;;;;;5037397;28;20194;-88
2021/11/13 09:12:27;;;;;;;9.60;8.70;;;9.30;99.90;;;;;;5046986;28;20460;-90
2021/11/13 09:15:04;;;;;;;9.33;8.60;;;13.00;99.90;;;;;;5050971;28;20471;-89
2021/11/13 09:17:31;;;;;;;8.27;7.60;;;;;;;;;;5041909;28;20420;-88
2021/11/13 09:20:05;;;;;;;7.33;6.73;;;9.60;99.90;;;;;;5058931;28;21014;-90
2021/11/13 09:22:59;;;;;;;8.97;8.20;;;9.60;99.90;;;;;;5045231;28;20473;-90
2021/11/13 09:25:28;;;;;;;9.48;8.57;;;9.60;99.90;;;;;;5073420;28;20533;-86
2021/11/13 09:27:55;;;;;;;9.70;8.20;;;9.80;99.90;;;;;;5052448;28;20168;-90
2021/11/13 09:30:42;;;;;;;10.47;9.60;;;9.80;99.90;;;;;;5078924;23;20568;-91
2021/11/13 09:33:08;;;;;;;9.60;8.90;;;9.80;99.90;;;;;;5087806;28;20404;-91
2021/11/13 09:35:41;;;;;;;9.20;8.40;;;9.00;99.90;;;;;;5109751;28;20400;-90
2021/11/13 09:38:08;;;;;;;9.23;8.30;;;;;;;;;;5102428;28;20408;-88
2021/11/13 09:40:34;;;;;;;8.93;8.20;;;;;;;;;;5073785;28;20428;-90
2021/11/13 09:43:07;;;;;;;8.10;7.70;;;9.90;99.90;;;;;;5100123;28;20431;-90
2021/11/13 09:45:36;;;;;;;7.35;6.85;;;10.20;99.90;;;;;;5084249;28;20552;-89
2021/11/13 09:48:05;;;;;;;7.73;7.23;;;10.20;99.90;;;;;;5086410;28;20170;-90
2021/11/13 09:50:35;;;;;;;7.30;6.80;;;10.20;99.90;;;;;;5086597;28;20456;-91
2021/11/13 09:53:06;;;;;;;8.40;7.80;;;12.60;99.90;;;;;;5085823;28;20411;-89
2021/11/13 09:55:32;;;;;;;8.07;7.43;;;;;;;;;;5088817;28;20408;-91
2021/11/13 09:57:58;;;;;;;7.53;6.93;;;;;;;;;;5093079;28;20412;-88
2021/11/13 10:00:30;;;;;;;7.73;7.30;;;10.70;99.90;;;;;;5065954;28;20783;-88
2021/11/13 10:02:59;;;;;;;6.40;6.10;;;12.00;99.90;;;;;;5067940;28;20425;-88
2021/11/13 10:05:25;;;;;;;7.77;7.00;;;;;;;;;;5069160;28;20473;-89
2021/11/13 10:07:52;;;;;;;7.97;7.37;;;;;;;;;;5063169;28;20981;-88
2021/11/13 10:10:31;;;;;;;8.30;7.80;;;11.10;99.90;;;;;;5083249;28;20413;-90
2021/11/13 10:13:25;;;;;;;7.10;6.70;;;10.90;99.90;;;;;;4728226;28;9999978;-89
2021/11/13 10:16:01;;;;;;;8.50;7.77;;;10.80;99.90;;;;;;5086793;28;20174;-88
2021/11/13 10:19:12;;;;;;;7.40;6.80;;;10.90;99.90;;;;;;5064209;28;20420;-91
2021/11/13 10:21:39;;;;;;;7.97;7.37;;;11.10;99.90;;;;;;5080484;28;20417;-91
2021/11/13 10:24:26;;;;;;;7.73;7.33;;;11.00;99.90;;;;;;5087400;28;20412;-88
2021/11/13 10:27:08;;;;;;;7.70;7.13;;;12.20;99.90;;;;;;5065885;28;20467;-90
2021/11/13 10:29:37;;;;;;;8.30;7.80;;;11.00;99.90;;;;;;5088518;28;20420;-89
2021/11/13 10:35:16;;;;;;;8.30;7.60;;;;;;;;;;5069691;28;20431;-90
2021/11/13 10:37:49;;;;;;;8.40;7.60;;;10.70;99.90;;;;;;5080551;28;20401;-90
2021/11/13 10:40:30;;;;;;;10.03;9.40;;;10.70;99.90;;;;;;5063300;28;20411;-87
2021/11/13 10:43:33;;;;;;;10.07;9.07;;;10.60;99.90;;;;;;5083028;28;20424;-91
2021/11/13 10:46:22;;;;;;;9.30;8.50;;;10.60;99.90;;;;;;5083794;28;20460;-90
2021/11/13 10:49:08;;;;;;;9.93;9.23;;;13.90;99.90;;;;;;5084615;28;20947;-89
2021/11/13 10:51:38;;;;;;;9.97;9.10;;;10.50;99.90;;;;;;5048668;28;20420;-90
2021/11/13 10:54:39;;;;;;;11.13;10.20;;;10.40;99.90;;;;;;5049037;28;20433;-89
2021/11/13 10:57:29;;;;;;;11.27;10.20;;;10.30;99.90;;;;;;5083282;28;20484;-92
2021/11/13 11:03:36;;;;;;;12.43;11.07;;;10.30;99.90;;;;;;5093865;28;20411;-89
2021/11/13 11:05:53;;;;;;;13.60;12.20;;;10.60;99.90;;;;;;5084188;28;20490;-89
2021/11/13 11:08:36;;;;;;;12.90;11.80;;;10.40;99.90;;;;;;5081552;28;20947;-89
2021/11/13 11:11:27;;;;;;;13.47;10.87;;;10.50;99.90;;;;;;5101561;28;20257;-91
2021/11/13 11:13:55;;;;;;;14.77;12.47;;;10.60;99.90;;;;;;5082574;28;20887;-90
2021/11/13 11:16:51;;;;;;;14.00;12.63;;;12.10;99.90;;;;;;5098469;28;20411;-92
2021/11/13 11:19:50;;;;;;;15.68;14.13;;;10.70;99.90;;;;;;5096270;28;20432;-92
2021/11/13 11:22:40;;;;;;;11.73;10.73;;;10.70;99.90;;;;;;5092403;28;20227;-88
2021/11/13 11:25:28;;;;;;;16.27;14.60;;;10.80;99.90;;;;;;5090925;28;20529;-91
2021/11/13 11:28:14;;;;;;;14.50;13.20;;;10.80;99.90;;;;;;5068139;28;20492;-91
2021/11/13 11:31:04;;;;;;;15.27;13.87;;;10.80;99.90;;;;;;5068154;28;20459;-91
2021/11/13 11:33:39;;;;;;;13.70;12.40;;;10.70;99.90;;;;;;5081710;28;20447;-89
2021/11/13 11:36:36;;;;;;;15.67;14.10;;;10.80;99.90;;;;;;5083349;28;20419;-90
2021/11/13 11:39:27;;;;;;;19.77;14.47;;;11.30;99.90;;;;;;5084644;28;20428;-92
2021/11/13 11:41:54;;;;;;;16.57;14.60;;;10.80;99.90;;;;;;5082329;28;20416;-88
2021/11/13 11:44:25;;;;;;;15.13;13.63;;;10.80;99.90;;;;;;5084144;28;20420;-90
2021/11/13 11:46:53;;;;;;;18.67;14.03;;;10.80;99.90;;;;;;5082474;28;20415;-90
2021/11/13 11:49:22;;;;;;;16.43;14.70;;;10.80;99.90;;;;;;5062570;28;20436;-91
2021/11/13 11:52:14;;;;;;;15.03;13.67;;;10.80;99.90;;;;;;5061436;28;20500;-89
2021/11/13 11:54:43;;;;;;;14.33;13.03;;;10.90;99.90;;;;;;5075988;28;20425;-89
2021/11/13 11:57:10;;;;;;;15.50;13.93;;;14.00;99.90;;;;;;5057032;28;21429;-87
2021/11/13 11:59:36;;;;;;;13.80;12.53;;;;;;;;;;5055453;28;20425;-86
2021/11/13 12:02:17;;;;;;;15.33;13.87;;;10.90;99.90;;;;;;5073203;28;20455;-86
2021/11/13 12:04:45;;;;;;;18.43;16.37;;;10.60;99.90;;;;;;5073142;28;20510;-86
2021/11/13 12:07:13;;;;;;;16.20;14.50;;;10.00;99.90;;;;;;5073650;28;20405;-87
2021/11/13 12:10:00;;;;;;;14.50;13.10;;;10.50;99.90;;;;;;5055641;28;20878;-86
2021/11/13 12:12:27;;;;;;;16.23;14.73;;;10.80;99.90;;;;;;5073709;28;20413;-85
2021/11/13 12:15:09;;;;;;;17.03;15.20;;;9.90;99.90;;;;;;5055541;28;20424;-87
2021/11/13 12:17:36;;;;;;;15.77;14.30;;;10.70;99.90;;;;;;5073675;28;20405;-85
2021/11/13 12:20:04;;;;;;;16.27;14.57;;;10.70;99.90;;;;;;5063961;28;20474;-87
2021/11/13 12:22:44;;;;;;;14.30;13.10;;;9.60;99.90;;;;;;5074798;28;20412;-86
2021/11/13 12:25:30;;;;;;;15.20;13.90;;;9.60;99.90;;;;;;5093348;28;20466;-87
2021/11/13 12:28:17;;;;;;;15.07;13.63;;;10.60;99.90;;;;;;5093260;28;20911;-85
2021/11/13 12:30:44;;;;;;;15.70;14.30;;;12.00;99.90;;;;;;5092795;28;20552;-85
2021/11/13 12:33:28;;;;;;;16.07;14.53;;;11.00;99.90;;;;;;5092533;28;20732;-87
2021/11/13 12:35:59;;;;;;;14.57;13.07;;;11.00;99.90;;;;;;5093034;28;20788;-86
2021/11/13 12:38:30;;;;;;;14.60;13.37;;;11.10;99.90;;;;;;5075511;28;20444;-87
2021/11/13 12:41:14;;;;;;;15.77;14.03;;;10.80;99.90;;;;;;5074444;28;20420;-87
2021/11/13 12:43:55;;;;;;;18.50;16.63;;;11.10;99.90;;;;;;5093311;28;20908;-86
2021/11/13 12:46:45;;;;;;;14.73;13.40;;;10.70;99.90;;;;;;4387889;28;10000589;-87
2021/11/13 12:49:17;;;;;;;15.00;13.80;;;11.10;99.90;;;;;;5090586;28;20236;-87
2021/11/13 12:51:43;;;;;;;16.40;15.00;;;11.10;99.90;;;;;;5072592;28;20416;-85
2021/11/13 12:54:18;;;;;;;14.03;12.93;;;11.20;99.90;;;;;;5071440;28;20471;-85
2021/11/13 12:56:49;;;;;;;14.30;13.13;;;11.20;99.90;;;;;;5075365;28;20484;-85
2021/11/13 12:59:19;;;;;;;11.70;10.60;;;11.60;99.90;;;;;;5094966;28;20408;-86
2021/11/13 13:01:57;;;;;;;13.53;12.43;;;11.10;99.90;;;;;;5094474;28;20423;-86
2021/11/13 13:04:23;;;;;;;11.80;11.00;;;;;;;;;;5095069;28;20416;-86
2021/11/13 13:06:50;;;;;;;13.07;12.07;;;11.80;99.90;;;;;;5076219;28;20481;-86
2021/11/13 13:09:16;;;;;;;13.33;12.13;;;;;;;;;;5093990;28;20414;-85
2021/11/13 13:11:48;;;;;;;12.47;11.40;;;12.00;99.90;;;;;;5076395;28;20424;-86
2021/11/13 13:14:24;;;;;;;12.33;11.33;;;11.20;99.90;;;;;;5075922;28;20424;-85
2021/11/13 13:16:50;;;;;;;13.47;12.17;;;11.90;99.90;;;;;;5094182;28;20400;-86
2021/11/13 13:19:16;;;;;;;13.60;12.30;;;10.90;99.90;;;;;;5077557;28;20501;-86
2021/11/13 13:21:53;;;;;;;14.00;12.90;;;12.10;99.90;;;;;;5094964;28;20161;-87
2021/11/13 13:24:21;;;;;;;14.53;13.27;;;12.30;99.90;;;;;;5096375;28;20244;-87
2021/11/13 13:26:48;;;;;;;13.47;12.23;;;12.20;99.90;;;;;;5096071;28;20742;-86
2021/11/13 13:29:18;;;;;;;14.20;13.00;;;11.40;99.90;;;;;;5078762;28;20463;-86
2021/11/13 13:32:08;;;;;;;16.40;12.80;;;12.20;99.90;;;;;;5096870;28;20456;-87
2021/11/13 13:34:51;;;;;;;17.27;14.00;;;12.20;99.90;;;;;;5081740;28;20431;-86
2021/11/13 13:37:21;;;;;;;16.73;14.87;;;12.00;99.90;;;;;;5096573;28;20415;-86
2021/11/13 13:39:49;;;;;;;16.07;14.40;;;11.80;99.90;;;;;;5080547;28;20453;-86
2021/11/13 13:42:15;;;;;;;16.83;15.17;;;;;;;;;;5095683;28;20433;-86
2021/11/13 13:44:41;;;;;;;17.50;15.80;;;11.60;99.90;;;;;;5095641;28;20511;-86
2021/11/13 13:47:07;;;;;;;30.20;23.80;;;11.50;99.90;;;;;;5096099;28;20803;-87
2021/11/13 13:49:33;;;;;;;16.63;15.03;;;11.50;99.90;;;;;;5078109;28;20420;-86
2021/11/13 13:52:06;;;;;;;18.17;16.50;;;11.40;99.90;;;;;;5078173;28;20178;-86
2021/11/13 13:54:36;;;;;;;17.67;15.97;;;11.30;99.90;;;;;;5096156;28;20930;-84
2021/11/13 13:57:05;;;;;;;21.33;15.53;;;11.10;99.90;;;;;;5096298;28;20424;-84
2021/11/13 13:59:40;;;;;;;19.63;17.83;;;11.20;99.90;;;;;;5096445;28;20411;-85
2021/11/13 14:02:10;;;;;;;22.70;16.63;;;10.70;99.90;;;;;;5078165;28;20452;-86
2021/11/13 14:04:45;;;;;;;21.63;18.33;;;11.10;99.90;;;;;;5096001;28;20400;-85
2021/11/13 14:07:25;;;;;;;21.83;19.00;;;11.00;99.90;;;;;;5094315;28;20422;-85
2021/11/13 14:10:05;;;;;;;23.42;19.45;;;11.00;99.90;;;;;;5095902;28;20416;-84
2021/11/13 14:12:54;;;;;;;22.63;19.57;;;10.90;99.90;;;;;;5077397;28;20736;-84
2021/11/13 14:15:23;;;;;;;20.40;17.77;;;11.00;99.90;;;;;;5095388;28;20423;-83
2021/11/13 14:17:58;;;;;;;21.20;18.90;;;10.60;99.90;;;;;;5095828;28;20902;-83
2021/11/13 14:20:25;;;;;;;23.37;20.37;;;11.00;99.90;;;;;;5096639;28;20400;-85
2021/11/13 14:23:03;;;;;;;23.93;18.00;;;10.70;99.90;;;;;;5092342;28;20434;-84
2021/11/13 14:25:41;;;;;;;20.00;18.00;;;11.00;99.90;;;;;;5067584;28;20554;-84
2021/11/13 14:28:07;;;;;;;17.73;16.03;;;11.10;99.90;;;;;;5078877;28;20424;-87
2021/11/13 14:30:42;;;;;;;15.97;14.43;;;10.70;99.90;;;;;;5063289;28;21016;-87
2021/11/13 14:33:08;;;;;;;15.23;13.63;;;11.00;99.90;;;;;;5076024;28;20409;-86
2021/11/13 14:35:35;;;;;;;15.00;13.50;;;12.90;99.90;;;;;;5075753;28;20417;-86
2021/11/13 14:38:01;;;;;;;15.83;14.33;;;13.10;99.90;;;;;;5075550;28;20899;-84
2021/11/13 14:40:27;;;;;;;14.57;13.17;;;11.30;99.90;;;;;;5058296;28;20420;-86
2021/11/13 14:42:52;;;;;;;13.87;12.23;;;11.90;99.90;;;;;;5092064;28;20166;-86
2021/11/13 14:45:47;;;;;;;13.43;12.03;;;12.70;99.90;;;;;;5077849;28;20232;-86
2021/11/13 14:48:17;;;;;;;12.67;11.67;;;11.70;99.90;;;;;;5074464;28;20239;-87
2021/11/13 14:50:46;;;;;;;15.33;13.73;;;10.20;99.90;;;;;;5095876;28;20495;-86
2021/11/13 14:53:13;;;;;;;14.63;13.23;;;11.40;99.90;;;;;;5077499;28;20412;-85
2021/11/13 14:55:40;;;;;;;13.70;12.10;;;10.20;99.90;;;;;;5094681;28;20415;-86
2021/11/13 14:58:07;;;;;;;14.37;12.97;;;12.80;99.90;;;;;;5095325;28;20770;-85
2021/11/13 15:00:41;;;;;;;16.27;14.57;;;10.70;99.90;;;;;;5076779;28;20416;-85
2021/11/13 15:03:11;;;;;;;16.33;13.90;;;10.60;99.90;;;;;;5094582;28;20399;-85
2021/11/13 15:05:46;;;;;;;14.13;12.80;;;10.70;99.90;;;;;;5077605;28;20463;-85
2021/11/13 15:08:16;;;;;;;14.97;13.67;;;10.80;99.90;;;;;;5098679;28;20400;-85
2021/11/13 15:10:42;;;;;;;15.13;13.60;;;10.80;99.90;;;;;;5100514;28;20408;-85
2021/11/13 15:13:19;;;;;;;15.54;14.06;;;10.70;99.90;;;;;;5049128;28;10000449;-84
2021/11/13 15:15:45;;;;;;;14.65;13.27;;;10.00;99.90;;;;;;4725817;28;10000393;-85
2021/11/13 15:18:12;;;;;;;17.60;13.30;;;11.10;99.90;;;;;;5075490;28;20545;-85
2021/11/13 15:20:38;;;;;;;17.30;14.97;;;;;;;;;;5057330;28;20932;-84
2021/11/13 15:23:07;;;;;;;16.13;14.57;;;10.70;99.90;;;;;;5056687;28;20452;-85
2021/11/13 15:25:42;;;;;;;16.03;13.47;;;10.40;99.90;;;;;;5072557;28;20815;-85
2021/11/13 15:28:16;;;;;;;14.90;13.50;;;10.60;99.90;;;;;;5073210;28;20447;-85
2021/11/13 15:30:47;;;;;;;16.00;14.37;;;10.60;99.90;;;;;;5073248;28;20452;-86
2021/11/13 15:33:18;;;;;;;18.43;16.63;;;10.60;99.90;;;;;;5054956;28;20425;-86
2021/11/13 15:35:47;;;;;;;17.40;15.60;;;10.60;99.90;;;;;;5072941;28;20405;-86
2021/11/13 15:38:27;;;;;;;16.77;14.97;;;10.50;99.90;;;;;;5075723;28;20503;-87
2021/11/13 15:41:01;;;;;;;16.43;14.77;;;10.90;99.90;;;;;;5061647;28;20507;-91
2021/11/13 15:43:30;;;;;;;16.93;14.23;;;15.20;99.90;;;;;;5065355;28;20954;-90
2021/11/13 15:45:58;;;;;;;15.63;14.20;;;;;;;;;;5080052;28;20487;-88
2021/11/13 15:48:31;;;;;;;18.40;16.60;;;10.50;99.90;;;;;;5090846;28;20421;-91
2021/11/13 15:51:12;;;;;;;19.80;17.70;;;10.60;99.90;;;;;;5084545;28;20433;-90
2021/11/13 15:53:51;;;;;;;43.93;27.03;;;10.60;99.90;;;;;;5072428;28;20467;-89
2021/11/13 15:56:43;;;;;;;15.50;14.00;;;10.70;99.90;;;;;;5070660;28;20420;-88
2021/11/13 15:59:19;;;;;;;15.77;14.10;;;10.80;99.90;;;;;;5090191;28;20413;-87
2021/11/13 16:01:56;;;;;;;17.33;15.57;;;;;;;;;;5073099;28;20444;-88
2021/11/13 16:04:26;;;;;;;18.13;16.27;;;10.60;99.90;;;;;;5088790;28;20396;-91
2021/11/13 16:06:54;;;;;;;17.93;15.90;;;10.40;99.90;;;;;;5072099;28;20505;-86
2021/11/13 16:09:23;;;;;;;16.47;14.80;;;10.60;99.90;;;;;;5071404;28;20419;-89
2021/11/13 16:12:14;;;;;;;19.07;15.20;;;10.50;99.90;;;;;;5080474;28;20408;-90
2021/11/13 16:14:53;;;;;;;;;;;;;;;;;;;;;
2021/11/13 16:17:25;;;;;;;17.08;15.27;;;10.80;99.90;;;;;;5078475;28;20230;-91
2021/11/13 16:19:51;;;;;;;18.43;16.63;;;;;;;;;;5064701;28;20181;-88
2021/11/13 16:22:18;;;;;;;16.93;15.20;;;10.60;99.90;;;;;;5074964;28;20817;-87
2021/11/13 16:24:44;;;;;;;24.50;19.20;;;10.60;99.90;;;;;;5091828;28;20495;-87
2021/11/13 16:27:10;;;;;;;18.00;15.80;;;10.60;99.90;;;;;;5091670;28;20426;-88
2021/11/13 16:29:36;;;;;;;19.63;15.87;;;10.40;99.90;;;;;;5091056;28;20408;-88
2021/11/13 16:32:02;;;;;;;19.53;17.53;;;9.10;99.90;;;;;;5091933;28;20209;-88
2021/11/13 16:34:28;;;;;;;21.90;15.60;;;10.50;99.90;;;;;;5091702;28;20408;-87
2021/11/13 16:37:02;;;;;;;18.13;15.03;;;10.60;99.90;;;;;;5091079;28;21041;-88